sensor_id;sensor_type;location;lat;lon;timestamp;P1;durP1;ratioP1;P2;durP2;ratioP2
29576;SDS011;16509;53.862;10.672;2023-01-01T00:01:06;26.55;;;10.77;;
29576;SDS011;16509;53.862;10.672;2023-01-01T00:03:32;24.95;;;10.57;;
29576;SDS011;16509;53.862;10.672;2023-01-01T00:05:58;29.60;;;11.63;;
29576;SDS011;16509;53.862;10.672;2023-01-01T00:08:28;37.33;;;12.73;;
29576;SDS011;16509;53.862;10.672;2023-01-01T00:10:54;22.85;;;11.82;;
29576;SDS011;16509;53.862;10.672;2023-01-01T00:13:19;27.95;;;12.48;;
29576;SDS011;16509;53.862;10.672;2023-01-01T00:15:45;25.77;;;11.02;;
29576;SDS011;16509;53.862;10.672;2023-01-01T00:18:10;23.75;;;10.82;;
29576;SDS011;16509;53.862;10.672;2023-01-01T00:20:36;35.13;;;10.32;;
29576;SDS011;16509;53.862;10.672;2023-01-01T00:23:01;32.67;;;11.15;;
29576;SDS011;16509;53.862;10.672;2023-01-01T00:25:27;20.33;;;10.68;;
29576;SDS011;16509;53.862;10.672;2023-01-01T00:27:53;23.48;;;8.90;;
29576;SDS011;16509;53.862;10.672;2023-01-01T00:30:19;26.02;;;8.88;;
29576;SDS011;16509;53.862;10.672;2023-01-01T00:32:45;19.25;;;7.30;;
29576;SDS011;16509;53.862;10.672;2023-01-01T00:35:10;13.45;;;6.88;;
29576;SDS011;16509;53.862;10.672;2023-01-01T00:37:36;16.35;;;6.93;;
29576;SDS011;16509;53.862;10.672;2023-01-01T00:40:02;13.27;;;5.47;;
29576;SDS011;16509;53.862;10.672;2023-01-01T00:42:27;25.27;;;5.85;;
29576;SDS011;16509;53.862;10.672;2023-01-01T00:44:53;12.55;;;5.45;;
29576;SDS011;16509;53.862;10.672;2023-01-01T00:47:18;13.18;;;5.18;;
29576;SDS011;16509;53.862;10.672;2023-01-01T00:49:44;20.90;;;5.60;;
29576;SDS011;16509;53.862;10.672;2023-01-01T00:52:09;11.57;;;5.13;;
29576;SDS011;16509;53.862;10.672;2023-01-01T00:54:35;11.55;;;4.70;;
29576;SDS011;16509;53.862;10.672;2023-01-01T00:57:01;12.60;;;4.75;;
29576;SDS011;16509;53.862;10.672;2023-01-01T00:59:26;22.23;;;5.45;;
29576;SDS011;16509;53.862;10.672;2023-01-01T01:01:52;19.40;;;4.72;;
29576;SDS011;16509;53.862;10.672;2023-01-01T01:04:17;15.77;;;4.20;;
29576;SDS011;16509;53.862;10.672;2023-01-01T01:06:43;19.52;;;4.22;;
29576;SDS011;16509;53.862;10.672;2023-01-01T01:09:09;13.10;;;4.88;;
29576;SDS011;16509;53.862;10.672;2023-01-01T01:11:34;13.65;;;4.72;;
29576;SDS011;16509;53.862;10.672;2023-01-01T01:14:00;14.55;;;4.50;;
29576;SDS011;16509;53.862;10.672;2023-01-01T01:16:30;13.55;;;4.43;;
29576;SDS011;16509;53.862;10.672;2023-01-01T01:18:57;12.57;;;4.20;;
29576;SDS011;16509;53.862;10.672;2023-01-01T01:21:26;14.40;;;4.65;;
29576;SDS011;16509;53.862;10.672;2023-01-01T01:23:53;10.90;;;4.40;;
29576;SDS011;16509;53.862;10.672;2023-01-01T01:26:25;16.88;;;4.43;;
29576;SDS011;16509;53.862;10.672;2023-01-01T01:28:53;24.10;;;4.65;;
29576;SDS011;16509;53.862;10.672;2023-01-01T01:31:20;17.58;;;4.57;;
29576;SDS011;16509;53.862;10.672;2023-01-01T01:33:47;14.13;;;4.53;;
29576;SDS011;16509;53.862;10.672;2023-01-01T01:36:14;12.32;;;3.35;;
29576;SDS011;16509;53.862;10.672;2023-01-01T01:38:41;15.20;;;3.78;;
29576;SDS011;16509;53.862;10.672;2023-01-01T01:41:07;17.00;;;4.03;;
29576;SDS011;16509;53.862;10.672;2023-01-01T01:46:00;16.17;;;4.30;;
29576;SDS011;16509;53.862;10.672;2023-01-01T01:48:35;7.93;;;4.68;;
29576;SDS011;16509;53.862;10.672;2023-01-01T01:51:04;9.20;;;3.47;;
29576;SDS011;16509;53.862;10.672;2023-01-01T01:53:31;14.30;;;3.65;;
29576;SDS011;16509;53.862;10.672;2023-01-01T01:56:03;9.70;;;3.78;;
29576;SDS011;16509;53.862;10.672;2023-01-01T01:58:32;13.07;;;4.40;;
29576;SDS011;16509;53.862;10.672;2023-01-01T02:00:58;18.25;;;3.92;;
29576;SDS011;16509;53.862;10.672;2023-01-01T02:03:30;11.65;;;4.07;;
29576;SDS011;16509;53.862;10.672;2023-01-01T02:05:56;21.02;;;9.32;;
29576;SDS011;16509;53.862;10.672;2023-01-01T02:08:23;9.50;;;4.43;;
29576;SDS011;16509;53.862;10.672;2023-01-01T02:10:49;15.38;;;4.22;;
29576;SDS011;16509;53.862;10.672;2023-01-01T02:13:14;16.40;;;4.35;;
29576;SDS011;16509;53.862;10.672;2023-01-01T02:15:43;11.88;;;2.97;;
29576;SDS011;16509;53.862;10.672;2023-01-01T02:18:18;12.07;;;3.50;;
29576;SDS011;16509;53.862;10.672;2023-01-01T02:20:49;13.23;;;3.97;;
29576;SDS011;16509;53.862;10.672;2023-01-01T02:26:24;11.05;;;4.00;;
29576;SDS011;16509;53.862;10.672;2023-01-01T02:31:39;7.97;;;3.25;;
29576;SDS011;16509;53.862;10.672;2023-01-01T02:34:10;9.90;;;3.15;;
29576;SDS011;16509;53.862;10.672;2023-01-01T02:36:41;14.15;;;3.08;;
29576;SDS011;16509;53.862;10.672;2023-01-01T02:39:12;11.15;;;3.40;;
29576;SDS011;16509;53.862;10.672;2023-01-01T02:41:40;8.52;;;3.17;;
29576;SDS011;16509;53.862;10.672;2023-01-01T02:44:09;15.57;;;3.25;;
29576;SDS011;16509;53.862;10.672;2023-01-01T02:46:35;15.30;;;3.25;;
29576;SDS011;16509;53.862;10.672;2023-01-01T02:49:01;8.80;;;3.47;;
29576;SDS011;16509;53.862;10.672;2023-01-01T02:51:34;12.75;;;3.80;;
29576;SDS011;16509;53.862;10.672;2023-01-01T02:56:40;10.05;;;3.42;;
29576;SDS011;16509;53.862;10.672;2023-01-01T03:18:31;12.75;;;3.78;;
29576;SDS011;16509;53.862;10.672;2023-01-01T03:21:03;13.30;;;4.30;;
29576;SDS011;16509;53.862;10.672;2023-01-01T03:23:35;13.98;;;4.13;;
29576;SDS011;16509;53.862;10.672;2023-01-01T03:28:32;9.43;;;3.47;;
29576;SDS011;16509;53.862;10.672;2023-01-01T03:31:02;17.40;;;4.43;;
29576;SDS011;16509;53.862;10.672;2023-01-01T03:33:31;14.60;;;3.35;;
29576;SDS011;16509;53.862;10.672;2023-01-01T03:36:05;13.98;;;3.45;;
29576;SDS011;16509;53.862;10.672;2023-01-01T03:38:38;15.32;;;4.28;;
29576;SDS011;16509;53.862;10.672;2023-01-01T03:41:15;13.95;;;3.90;;
29576;SDS011;16509;53.862;10.672;2023-01-01T03:44:03;18.52;;;4.07;;
29576;SDS011;16509;53.862;10.672;2023-01-01T03:46:33;7.85;;;4.00;;
29576;SDS011;16509;53.862;10.672;2023-01-01T03:52:25;13.02;;;3.95;;
29576;SDS011;16509;53.862;10.672;2023-01-01T03:54:59;15.23;;;3.72;;
29576;SDS011;16509;53.862;10.672;2023-01-01T04:00:35;8.93;;;3.60;;
29576;SDS011;16509;53.862;10.672;2023-01-01T04:03:05;11.20;;;3.90;;
29576;SDS011;16509;53.862;10.672;2023-01-01T04:05:38;9.10;;;3.78;;
29576;SDS011;16509;53.862;10.672;2023-01-01T04:08:05;12.00;;;4.30;;
29576;SDS011;16509;53.862;10.672;2023-01-01T04:10:33;14.75;;;3.92;;
29576;SDS011;16509;53.862;10.672;2023-01-01T04:13:02;10.23;;;3.80;;
29576;SDS011;16509;53.862;10.672;2023-01-01T04:15:30;13.38;;;4.35;;
29576;SDS011;16509;53.862;10.672;2023-01-01T04:17:56;10.32;;;3.92;;
29576;SDS011;16509;53.862;10.672;2023-01-01T04:20:22;13.93;;;4.95;;
29576;SDS011;16509;53.862;10.672;2023-01-01T04:22:48;10.13;;;4.32;;
29576;SDS011;16509;53.862;10.672;2023-01-01T04:25:14;16.80;;;4.30;;
29576;SDS011;16509;53.862;10.672;2023-01-01T04:27:41;11.43;;;4.85;;
29576;SDS011;16509;53.862;10.672;2023-01-01T04:30:08;15.93;;;5.18;;
29576;SDS011;16509;53.862;10.672;2023-01-01T04:32:36;18.85;;;5.53;;
29576;SDS011;16509;53.862;10.672;2023-01-01T04:35:02;9.93;;;5.13;;
29576;SDS011;16509;53.862;10.672;2023-01-01T04:37:28;8.68;;;5.00;;
29576;SDS011;16509;53.862;10.672;2023-01-01T04:39:54;22.75;;;6.00;;
29576;SDS011;16509;53.862;10.672;2023-01-01T04:42:19;14.07;;;5.20;;
29576;SDS011;16509;53.862;10.672;2023-01-01T04:44:45;14.90;;;5.38;;
29576;SDS011;16509;53.862;10.672;2023-01-01T04:47:10;9.43;;;4.60;;
29576;SDS011;16509;53.862;10.672;2023-01-01T04:49:36;11.32;;;5.32;;
29576;SDS011;16509;53.862;10.672;2023-01-01T04:52:02;18.13;;;5.88;;
29576;SDS011;16509;53.862;10.672;2023-01-01T04:54:28;13.32;;;5.53;;
29576;SDS011;16509;53.862;10.672;2023-01-01T04:56:53;21.65;;;5.28;;
29576;SDS011;16509;53.862;10.672;2023-01-01T04:59:19;13.93;;;5.45;;
29576;SDS011;16509;53.862;10.672;2023-01-01T05:01:45;11.95;;;5.03;;
29576;SDS011;16509;53.862;10.672;2023-01-01T05:04:12;11.48;;;5.03;;
29576;SDS011;16509;53.862;10.672;2023-01-01T05:06:38;11.18;;;4.68;;
29576;SDS011;16509;53.862;10.672;2023-01-01T05:09:04;12.85;;;4.93;;
29576;SDS011;16509;53.862;10.672;2023-01-01T05:11:30;16.42;;;4.38;;
29576;SDS011;16509;53.862;10.672;2023-01-01T05:13:59;9.05;;;3.58;;
29576;SDS011;16509;53.862;10.672;2023-01-01T05:16:26;16.63;;;4.50;;
29576;SDS011;16509;53.862;10.672;2023-01-01T05:18:54;22.33;;;4.55;;
29576;SDS011;16509;53.862;10.672;2023-01-01T05:21:22;9.55;;;4.03;;
29576;SDS011;16509;53.862;10.672;2023-01-01T05:23:56;14.57;;;3.95;;
29576;SDS011;16509;53.862;10.672;2023-01-01T05:26:24;12.80;;;4.72;;
29576;SDS011;16509;53.862;10.672;2023-01-01T05:28:52;14.52;;;4.05;;
29576;SDS011;16509;53.862;10.672;2023-01-01T05:31:19;12.57;;;4.07;;
29576;SDS011;16509;53.862;10.672;2023-01-01T05:33:47;10.85;;;4.07;;
29576;SDS011;16509;53.862;10.672;2023-01-01T05:36:14;7.03;;;3.20;;
29576;SDS011;16509;53.862;10.672;2023-01-01T05:38:41;13.93;;;4.07;;
29576;SDS011;16509;53.862;10.672;2023-01-01T05:41:08;14.30;;;3.55;;
29576;SDS011;16509;53.862;10.672;2023-01-01T05:43:36;8.00;;;2.88;;
29576;SDS011;16509;53.862;10.672;2023-01-01T05:46:02;11.45;;;3.22;;
29576;SDS011;16509;53.862;10.672;2023-01-01T05:48:30;14.25;;;3.95;;
29576;SDS011;16509;53.862;10.672;2023-01-01T05:53:28;13.55;;;3.70;;
29576;SDS011;16509;53.862;10.672;2023-01-01T05:55:55;13.85;;;3.03;;
29576;SDS011;16509;53.862;10.672;2023-01-01T05:58:21;8.52;;;2.72;;
29576;SDS011;16509;53.862;10.672;2023-01-01T06:00:46;9.05;;;3.38;;
29576;SDS011;16509;53.862;10.672;2023-01-01T06:03:12;9.77;;;2.97;;
29576;SDS011;16509;53.862;10.672;2023-01-01T06:05:38;12.32;;;2.90;;
29576;SDS011;16509;53.862;10.672;2023-01-01T06:08:03;9.80;;;2.88;;
29576;SDS011;16509;53.862;10.672;2023-01-01T06:10:29;5.78;;;2.50;;
29576;SDS011;16509;53.862;10.672;2023-01-01T06:12:54;13.20;;;2.88;;
29576;SDS011;16509;53.862;10.672;2023-01-01T06:15:26;10.65;;;2.72;;
29576;SDS011;16509;53.862;10.672;2023-01-01T06:17:52;9.68;;;2.20;;
29576;SDS011;16509;53.862;10.672;2023-01-01T06:20:18;9.40;;;2.42;;
29576;SDS011;16509;53.862;10.672;2023-01-01T06:22:44;8.02;;;2.72;;
29576;SDS011;16509;53.862;10.672;2023-01-01T06:25:10;8.35;;;2.53;;
29576;SDS011;16509;53.862;10.672;2023-01-01T06:27:36;6.47;;;2.45;;
29576;SDS011;16509;53.862;10.672;2023-01-01T06:30:05;8.30;;;2.65;;
29576;SDS011;16509;53.862;10.672;2023-01-01T06:32:32;7.85;;;2.50;;
29576;SDS011;16509;53.862;10.672;2023-01-01T06:34:58;13.00;;;3.03;;
29576;SDS011;16509;53.862;10.672;2023-01-01T06:37:23;13.45;;;2.72;;
29576;SDS011;16509;53.862;10.672;2023-01-01T06:39:49;9.20;;;2.80;;
29576;SDS011;16509;53.862;10.672;2023-01-01T06:42:15;7.88;;;2.60;;
29576;SDS011;16509;53.862;10.672;2023-01-01T06:44:40;8.77;;;2.50;;
29576;SDS011;16509;53.862;10.672;2023-01-01T06:47:06;9.00;;;2.67;;
29576;SDS011;16509;53.862;10.672;2023-01-01T06:49:32;10.45;;;2.63;;
29576;SDS011;16509;53.862;10.672;2023-01-01T06:51:57;5.97;;;2.55;;
29576;SDS011;16509;53.862;10.672;2023-01-01T06:54:23;8.35;;;2.63;;
29576;SDS011;16509;53.862;10.672;2023-01-01T06:56:49;5.80;;;2.60;;
29576;SDS011;16509;53.862;10.672;2023-01-01T06:59:15;12.73;;;3.22;;
29576;SDS011;16509;53.862;10.672;2023-01-01T07:01:41;6.10;;;3.05;;
29576;SDS011;16509;53.862;10.672;2023-01-01T07:04:09;12.90;;;2.92;;
29576;SDS011;16509;53.862;10.672;2023-01-01T07:06:36;6.05;;;2.60;;
29576;SDS011;16509;53.862;10.672;2023-01-01T07:09:03;13.85;;;2.33;;
29576;SDS011;16509;53.862;10.672;2023-01-01T07:11:30;11.15;;;3.15;;
29576;SDS011;16509;53.862;10.672;2023-01-01T07:13:56;5.45;;;2.15;;
29576;SDS011;16509;53.862;10.672;2023-01-01T07:16:22;9.25;;;2.72;;
29576;SDS011;16509;53.862;10.672;2023-01-01T07:18:48;6.40;;;2.65;;
29576;SDS011;16509;53.862;10.672;2023-01-01T07:21:33;8.50;;;2.40;;
29576;SDS011;16509;53.862;10.672;2023-01-01T07:24:07;9.32;;;2.65;;
29576;SDS011;16509;53.862;10.672;2023-01-01T07:26:35;6.10;;;2.38;;
29576;SDS011;16509;53.862;10.672;2023-01-01T07:29:00;7.85;;;2.10;;
29576;SDS011;16509;53.862;10.672;2023-01-01T07:31:26;7.43;;;2.40;;
29576;SDS011;16509;53.862;10.672;2023-01-01T07:33:52;8.48;;;2.50;;
29576;SDS011;16509;53.862;10.672;2023-01-01T07:36:17;11.63;;;2.47;;
29576;SDS011;16509;53.862;10.672;2023-01-01T07:38:43;14.68;;;2.55;;
29576;SDS011;16509;53.862;10.672;2023-01-01T07:41:09;13.50;;;2.88;;
29576;SDS011;16509;53.862;10.672;2023-01-01T07:43:35;7.40;;;2.42;;
29576;SDS011;16509;53.862;10.672;2023-01-01T07:46:01;7.35;;;2.63;;
29576;SDS011;16509;53.862;10.672;2023-01-01T07:48:26;9.90;;;3.03;;
29576;SDS011;16509;53.862;10.672;2023-01-01T07:50:52;10.27;;;2.35;;
29576;SDS011;16509;53.862;10.672;2023-01-01T07:53:18;7.28;;;2.30;;
29576;SDS011;16509;53.862;10.672;2023-01-01T07:55:43;11.98;;;2.40;;
29576;SDS011;16509;53.862;10.672;2023-01-01T07:58:10;7.60;;;2.35;;
29576;SDS011;16509;53.862;10.672;2023-01-01T08:00:36;6.65;;;2.22;;
29576;SDS011;16509;53.862;10.672;2023-01-01T08:03:02;5.20;;;2.35;;
29576;SDS011;16509;53.862;10.672;2023-01-01T08:05:27;3.95;;;1.88;;
29576;SDS011;16509;53.862;10.672;2023-01-01T08:07:53;16.83;;;2.35;;
29576;SDS011;16509;53.862;10.672;2023-01-01T08:10:19;7.70;;;2.50;;
29576;SDS011;16509;53.862;10.672;2023-01-01T08:12:45;15.93;;;2.20;;
29576;SDS011;16509;53.862;10.672;2023-01-01T08:15:11;16.95;;;2.10;;
29576;SDS011;16509;53.862;10.672;2023-01-01T08:17:37;4.93;;;1.50;;
29576;SDS011;16509;53.862;10.672;2023-01-01T08:20:04;8.60;;;2.17;;
29576;SDS011;16509;53.862;10.672;2023-01-01T08:22:30;10.23;;;1.80;;
29576;SDS011;16509;53.862;10.672;2023-01-01T08:24:56;4.50;;;1.77;;
29576;SDS011;16509;53.862;10.672;2023-01-01T08:27:22;11.30;;;2.22;;
29576;SDS011;16509;53.862;10.672;2023-01-01T08:29:47;9.52;;;2.38;;
29576;SDS011;16509;53.862;10.672;2023-01-01T08:32:13;5.40;;;1.67;;
29576;SDS011;16509;53.862;10.672;2023-01-01T08:34:38;7.22;;;1.60;;
29576;SDS011;16509;53.862;10.672;2023-01-01T08:37:04;14.48;;;2.90;;
29576;SDS011;16509;53.862;10.672;2023-01-01T08:39:30;5.72;;;1.60;;
29576;SDS011;16509;53.862;10.672;2023-01-01T08:41:56;5.25;;;1.85;;
29576;SDS011;16509;53.862;10.672;2023-01-01T08:44:22;12.98;;;1.85;;
29576;SDS011;16509;53.862;10.672;2023-01-01T08:46:48;13.98;;;1.77;;
29576;SDS011;16509;53.862;10.672;2023-01-01T08:49:16;5.55;;;1.52;;
29576;SDS011;16509;53.862;10.672;2023-01-01T08:51:41;5.65;;;1.38;;
29576;SDS011;16509;53.862;10.672;2023-01-01T08:54:07;4.68;;;1.38;;
29576;SDS011;16509;53.862;10.672;2023-01-01T08:56:32;5.97;;;1.42;;
29576;SDS011;16509;53.862;10.672;2023-01-01T08:58:59;3.17;;;1.40;;
29576;SDS011;16509;53.862;10.672;2023-01-01T09:01:25;2.25;;;1.05;;
29576;SDS011;16509;53.862;10.672;2023-01-01T09:03:51;3.53;;;1.20;;
29576;SDS011;16509;53.862;10.672;2023-01-01T09:06:17;2.35;;;1.05;;
29576;SDS011;16509;53.862;10.672;2023-01-01T09:08:43;6.20;;;1.13;;
29576;SDS011;16509;53.862;10.672;2023-01-01T09:11:22;4.22;;;1.17;;
29576;SDS011;16509;53.862;10.672;2023-01-01T09:13:49;7.57;;;1.40;;
29576;SDS011;16509;53.862;10.672;2023-01-01T09:16:16;9.65;;;1.13;;
29576;SDS011;16509;53.862;10.672;2023-01-01T09:18:41;4.30;;;1.20;;
29576;SDS011;16509;53.862;10.672;2023-01-01T09:21:07;4.15;;;1.30;;
29576;SDS011;16509;53.862;10.672;2023-01-01T09:23:33;6.53;;;1.42;;
29576;SDS011;16509;53.862;10.672;2023-01-01T09:26:05;12.68;;;1.42;;
29576;SDS011;16509;53.862;10.672;2023-01-01T09:28:32;3.95;;;0.90;;
29576;SDS011;16509;53.862;10.672;2023-01-01T09:30:58;3.45;;;1.30;;
29576;SDS011;16509;53.862;10.672;2023-01-01T09:33:25;1.05;;;0.82;;
29576;SDS011;16509;53.862;10.672;2023-01-01T09:35:50;2.45;;;0.95;;
29576;SDS011;16509;53.862;10.672;2023-01-01T09:38:16;4.07;;;1.13;;
29576;SDS011;16509;53.862;10.672;2023-01-01T09:46:09;0.88;;;0.80;;
29576;SDS011;16509;53.862;10.672;2023-01-01T09:48:36;5.10;;;1.33;;
29576;SDS011;16509;53.862;10.672;2023-01-01T09:51:05;5.00;;;0.90;;
29576;SDS011;16509;53.862;10.672;2023-01-01T09:53:44;6.05;;;1.10;;
29576;SDS011;16509;53.862;10.672;2023-01-01T09:56:29;6.55;;;1.23;;
29576;SDS011;16509;53.862;10.672;2023-01-01T09:58:56;7.30;;;1.35;;
29576;SDS011;16509;53.862;10.672;2023-01-01T10:01:34;1.92;;;1.17;;
29576;SDS011;16509;53.862;10.672;2023-01-01T10:04:01;8.52;;;0.93;;
29576;SDS011;16509;53.862;10.672;2023-01-01T10:07:15;4.65;;;1.05;;
29576;SDS011;16509;53.862;10.672;2023-01-01T10:09:46;5.32;;;1.00;;
29576;SDS011;16509;53.862;10.672;2023-01-01T10:15:17;9.60;;;1.30;;
29576;SDS011;16509;53.862;10.672;2023-01-01T10:17:50;4.72;;;1.20;;
29576;SDS011;16509;53.862;10.672;2023-01-01T10:20:27;3.75;;;0.90;;
29576;SDS011;16509;53.862;10.672;2023-01-01T10:23:13;2.10;;;0.95;;
29576;SDS011;16509;53.862;10.672;2023-01-01T10:25:49;3.95;;;1.00;;
29576;SDS011;16509;53.862;10.672;2023-01-01T10:28:20;7.15;;;1.17;;
29576;SDS011;16509;53.862;10.672;2023-01-01T10:30:52;3.13;;;0.95;;
29576;SDS011;16509;53.862;10.672;2023-01-01T10:33:32;3.60;;;1.02;;
29576;SDS011;16509;53.862;10.672;2023-01-01T10:35:58;2.67;;;0.80;;
29576;SDS011;16509;53.862;10.672;2023-01-01T10:38:25;3.58;;;0.90;;
29576;SDS011;16509;53.862;10.672;2023-01-01T10:40:52;10.52;;;1.20;;
29576;SDS011;16509;53.862;10.672;2023-01-01T10:43:26;2.42;;;1.00;;
29576;SDS011;16509;53.862;10.672;2023-01-01T10:45:52;12.63;;;1.30;;
29576;SDS011;16509;53.862;10.672;2023-01-01T10:48:23;1.98;;;1.00;;
29576;SDS011;16509;53.862;10.672;2023-01-01T10:50:56;4.95;;;1.27;;
29576;SDS011;16509;53.862;10.672;2023-01-01T10:53:39;7.57;;;1.00;;
29576;SDS011;16509;53.862;10.672;2023-01-01T10:56:10;6.13;;;1.10;;
29576;SDS011;16509;53.862;10.672;2023-01-01T10:58:42;2.92;;;0.93;;
29576;SDS011;16509;53.862;10.672;2023-01-01T11:01:20;2.05;;;0.90;;
29576;SDS011;16509;53.862;10.672;2023-01-01T11:06:43;7.55;;;1.35;;
29576;SDS011;16509;53.862;10.672;2023-01-01T11:09:23;8.23;;;0.93;;
29576;SDS011;16509;53.862;10.672;2023-01-01T11:11:55;2.90;;;1.08;;
29576;SDS011;16509;53.862;10.672;2023-01-01T11:17:12;8.95;;;1.08;;
29576;SDS011;16509;53.862;10.672;2023-01-01T11:19:49;4.72;;;1.00;;
29576;SDS011;16509;53.862;10.672;2023-01-01T11:25:03;2.45;;;1.10;;
29576;SDS011;16509;53.862;10.672;2023-01-01T11:27:41;8.25;;;1.13;;
29576;SDS011;16509;53.862;10.672;2023-01-01T11:30:18;5.72;;;1.42;;
29576;SDS011;16509;53.862;10.672;2023-01-01T11:32:44;2.13;;;0.85;;
29576;SDS011;16509;53.862;10.672;2023-01-01T11:35:14;4.28;;;1.08;;
29576;SDS011;16509;53.862;10.672;2023-01-01T11:37:44;3.50;;;0.98;;
29576;SDS011;16509;53.862;10.672;2023-01-01T11:40:15;7.13;;;1.10;;
29576;SDS011;16509;53.862;10.672;2023-01-01T11:42:44;4.28;;;1.05;;
29576;SDS011;16509;53.862;10.672;2023-01-01T11:45:22;3.25;;;1.05;;
29576;SDS011;16509;53.862;10.672;2023-01-01T11:47:52;4.82;;;1.00;;
29576;SDS011;16509;53.862;10.672;2023-01-01T11:51:26;8.70;;;1.20;;
29576;SDS011;16509;53.862;10.672;2023-01-01T11:56:05;3.20;;;1.15;;
29576;SDS011;16509;53.862;10.672;2023-01-01T12:04:08;4.45;;;1.05;;
29576;SDS011;16509;53.862;10.672;2023-01-01T12:12:14;3.72;;;0.93;;
29576;SDS011;16509;53.862;10.672;2023-01-01T12:15:24;4.60;;;0.90;;
29576;SDS011;16509;53.862;10.672;2023-01-01T12:20:36;1.88;;;1.10;;
29576;SDS011;16509;53.862;10.672;2023-01-01T12:23:10;8.55;;;1.63;;
29576;SDS011;16509;53.862;10.672;2023-01-01T12:25:43;3.28;;;1.10;;
29576;SDS011;16509;53.862;10.672;2023-01-01T12:31:18;11.80;;;1.85;;
29576;SDS011;16509;53.862;10.672;2023-01-01T12:36:41;2.60;;;1.20;;
29576;SDS011;16509;53.862;10.672;2023-01-01T12:41:57;5.82;;;1.02;;
29576;SDS011;16509;53.862;10.672;2023-01-01T12:56:29;5.00;;;1.00;;
29576;SDS011;16509;53.862;10.672;2023-01-01T12:59:02;10.70;;;1.58;;
29576;SDS011;16509;53.862;10.672;2023-01-01T13:01:37;12.85;;;2.05;;
29576;SDS011;16509;53.862;10.672;2023-01-01T13:04:06;4.60;;;0.90;;
29576;SDS011;16509;53.862;10.672;2023-01-01T13:06:49;9.40;;;1.20;;
29576;SDS011;16509;53.862;10.672;2023-01-01T13:09:18;2.95;;;1.00;;
29576;SDS011;16509;53.862;10.672;2023-01-01T13:12:00;3.90;;;1.45;;
29576;SDS011;16509;53.862;10.672;2023-01-01T13:14:29;5.00;;;1.20;;
29576;SDS011;16509;53.862;10.672;2023-01-01T13:17:01;5.20;;;1.37;;
29576;SDS011;16509;53.862;10.672;2023-01-01T13:19:37;4.13;;;1.50;;
29576;SDS011;16509;53.862;10.672;2023-01-01T13:51:58;8.23;;;1.25;;
29576;SDS011;16509;53.862;10.672;2023-01-01T14:00:31;3.22;;;1.05;;
29576;SDS011;16509;53.862;10.672;2023-01-01T14:03:17;7.03;;;1.02;;
29576;SDS011;16509;53.862;10.672;2023-01-01T14:05:47;9.70;;;1.10;;
29576;SDS011;16509;53.862;10.672;2023-01-01T14:08:32;3.60;;;1.02;;
29576;SDS011;16509;53.862;10.672;2023-01-01T14:10:59;6.75;;;1.10;;
29576;SDS011;16509;53.862;10.672;2023-01-01T14:13:30;4.15;;;1.10;;
29576;SDS011;16509;53.862;10.672;2023-01-01T14:16:04;6.22;;;1.33;;
29576;SDS011;16509;53.862;10.672;2023-01-01T14:21:37;4.88;;;1.42;;
29576;SDS011;16509;53.862;10.672;2023-01-01T14:24:04;8.43;;;1.58;;
29576;SDS011;16509;53.862;10.672;2023-01-01T14:26:32;6.53;;;1.85;;
29576;SDS011;16509;53.862;10.672;2023-01-01T14:29:04;15.18;;;1.60;;
29576;SDS011;16509;53.862;10.672;2023-01-01T14:31:49;7.80;;;1.60;;
29576;SDS011;16509;53.862;10.672;2023-01-01T14:34:25;10.02;;;1.40;;
29576;SDS011;16509;53.862;10.672;2023-01-01T14:36:57;5.88;;;1.35;;
29576;SDS011;16509;53.862;10.672;2023-01-01T14:39:29;5.38;;;1.80;;
29576;SDS011;16509;53.862;10.672;2023-01-01T14:42:01;7.38;;;1.60;;
29576;SDS011;16509;53.862;10.672;2023-01-01T14:44:34;12.43;;;2.20;;
29576;SDS011;16509;53.862;10.672;2023-01-01T14:47:02;9.43;;;1.70;;
29576;SDS011;16509;53.862;10.672;2023-01-01T14:49:32;16.67;;;1.60;;
29576;SDS011;16509;53.862;10.672;2023-01-01T14:52:05;6.07;;;1.48;;
29576;SDS011;16509;53.862;10.672;2023-01-01T14:55:02;8.82;;;1.80;;
29576;SDS011;16509;53.862;10.672;2023-01-01T14:57:29;4.35;;;1.40;;
29576;SDS011;16509;53.862;10.672;2023-01-01T14:59:56;4.25;;;1.52;;
29576;SDS011;16509;53.862;10.672;2023-01-01T15:02:23;8.15;;;1.80;;
29576;SDS011;16509;53.862;10.672;2023-01-01T15:04:50;10.70;;;1.90;;
29576;SDS011;16509;53.862;10.672;2023-01-01T15:07:23;15.65;;;2.30;;
29576;SDS011;16509;53.862;10.672;2023-01-01T15:09:54;4.82;;;1.40;;
29576;SDS011;16509;53.862;10.672;2023-01-01T15:12:22;4.65;;;1.30;;
29576;SDS011;16509;53.862;10.672;2023-01-01T15:14:48;3.65;;;1.20;;
29576;SDS011;16509;53.862;10.672;2023-01-01T15:17:17;7.45;;;1.55;;
29576;SDS011;16509;53.862;10.672;2023-01-01T15:19:45;7.95;;;1.65;;
29576;SDS011;16509;53.862;10.672;2023-01-01T15:24:50;11.32;;;1.60;;
29576;SDS011;16509;53.862;10.672;2023-01-01T15:27:37;5.80;;;1.27;;
29576;SDS011;16509;53.862;10.672;2023-01-01T15:30:03;8.75;;;1.50;;
29576;SDS011;16509;53.862;10.672;2023-01-01T15:32:36;6.85;;;1.63;;
29576;SDS011;16509;53.862;10.672;2023-01-01T15:42:39;5.40;;;1.37;;
29576;SDS011;16509;53.862;10.672;2023-01-01T15:45:28;5.75;;;1.83;;
29576;SDS011;16509;53.862;10.672;2023-01-01T15:50:29;4.45;;;1.38;;
29576;SDS011;16509;53.862;10.672;2023-01-01T15:53:00;7.80;;;1.45;;
29576;SDS011;16509;53.862;10.672;2023-01-01T15:55:35;9.38;;;1.50;;
29576;SDS011;16509;53.862;10.672;2023-01-01T15:58:11;5.32;;;1.60;;
29576;SDS011;16509;53.862;10.672;2023-01-01T16:00:44;15.98;;;2.97;;
29576;SDS011;16509;53.862;10.672;2023-01-01T16:03:20;8.43;;;1.80;;
29576;SDS011;16509;53.862;10.672;2023-01-01T16:05:49;6.30;;;1.63;;
29576;SDS011;16509;53.862;10.672;2023-01-01T16:08:16;8.00;;;2.20;;
29576;SDS011;16509;53.862;10.672;2023-01-01T16:10:44;12.25;;;2.13;;
29576;SDS011;16509;53.862;10.672;2023-01-01T16:13:10;8.27;;;1.58;;
29576;SDS011;16509;53.862;10.672;2023-01-01T16:15:37;11.25;;;2.08;;
29576;SDS011;16509;53.862;10.672;2023-01-01T16:18:12;14.32;;;2.25;;
29576;SDS011;16509;53.862;10.672;2023-01-01T16:20:41;5.30;;;1.77;;
29576;SDS011;16509;53.862;10.672;2023-01-01T16:23:08;10.75;;;2.15;;
29576;SDS011;16509;53.862;10.672;2023-01-01T16:25:34;10.88;;;2.42;;
29576;SDS011;16509;53.862;10.672;2023-01-01T16:28:00;10.50;;;2.38;;
29576;SDS011;16509;53.862;10.672;2023-01-01T16:30:28;14.60;;;2.10;;
29576;SDS011;16509;53.862;10.672;2023-01-01T16:32:53;5.00;;;1.38;;
29576;SDS011;16509;53.862;10.672;2023-01-01T16:35:19;10.70;;;2.17;;
29576;SDS011;16509;53.862;10.672;2023-01-01T16:37:45;7.13;;;1.83;;
29576;SDS011;16509;53.862;10.672;2023-01-01T16:40:10;9.10;;;1.80;;
29576;SDS011;16509;53.862;10.672;2023-01-01T16:42:36;4.18;;;1.50;;
29576;SDS011;16509;53.862;10.672;2023-01-01T16:45:03;8.95;;;1.88;;
29576;SDS011;16509;53.862;10.672;2023-01-01T16:47:29;10.48;;;2.10;;
29576;SDS011;16509;53.862;10.672;2023-01-01T16:49:54;10.63;;;1.40;;
29576;SDS011;16509;53.862;10.672;2023-01-01T16:52:20;5.55;;;1.90;;
29576;SDS011;16509;53.862;10.672;2023-01-01T16:54:45;7.05;;;1.67;;
29576;SDS011;16509;53.862;10.672;2023-01-01T16:57:12;13.80;;;2.55;;
29576;SDS011;16509;53.862;10.672;2023-01-01T16:59:47;4.50;;;1.40;;
29576;SDS011;16509;53.862;10.672;2023-01-01T17:05:12;11.95;;;1.65;;
29576;SDS011;16509;53.862;10.672;2023-01-01T17:07:38;4.85;;;1.88;;
29576;SDS011;16509;53.862;10.672;2023-01-01T17:10:03;9.05;;;1.95;;